Time,TemperatureF,DewpointF,PressureIn,WindDirection,WindDirectionDegrees,WindSpeedMPH,WindSpeedGustMPH,Humidity,HourlyPrecipIn,Conditions,Clouds,dailyrainin,SoftwareType,DateUTC
2013-06-23 00:04:00,60.2,56.0,29.82,North,0,0.0,0.0,86,0.00,,,0.00,WUHU216DAVISVP2,2013-06-23 07:04:00,
2013-06-23 00:09:00,60.2,56.0,29.82,North,0,0.0,1.0,86,0.00,,,0.00,WUHU216DAVISVP2,2013-06-23 07:09:00,
2013-06-23 00:14:00,60.2,56.0,29.82,North,0,0.0,1.0,86,0.00,,,0.00,WUHU216DAVISVP2,2013-06-23 07:14:00,
2013-06-23 00:19:00,60.4,56.2,29.82,ENE,68,0.0,3.0,86,0.00,,,0.00,WUHU216DAVISVP2,2013-06-23 07:19:00,
2013-06-23 00:21:00,72.4,56.8,29.84,North,349,0.0,0.0,58,0.00,,,0.00,WUHU216DAVISVP2,2013-06-23 07:21:00,
2013-06-23 00:24:00,60.6,56.4,29.82,North,0,0.0,3.0,86,0.00,,,0.00,WUHU216DAVISVP2,2013-06-23 07:24:00,
2013-06-23 00:29:00,60.8,56.3,29.81,North,0,0.0,3.0,85,0.00,,,0.00,WUHU216DAVISVP2,2013-06-23 07:29:00,
2013-06-23 00:34:00,72.4,56.8,29.84,North,349,0.0,0.0,58,0.00,,,0.00,WUHU216DAVISVP2,2013-06-23 07:34:00,
2013-06-23 00:39:00,60.9,56.4,29.81,North,0,0.0,2.0,85,0.00,,,0.00,WUHU216DAVISVP2,2013-06-23 07:39:00,
2013-06-23 00:44:00,60.9,56.4,29.81,North,0,0.0,1.0,85,0.00,,,0.00,WUHU216DAVISVP2,2013-06-23 07:44:00,
2013-06-23 00:49:00,60.9,56.4,29.81,ENE,68,0.0,1.0,85,0.00,,,0.00,WUHU216DAVISVP2,2013-06-23 07:49:00,
2013-06-23 00:54:00,61.0,56.5,29.81,ENE,68,0.0,3.0,85,0.00,,,0.00,WUHU216DAVISVP2,2013-06-23 07:54:00,
2013-06-23 00:59:00,61.1,56.6,29.81,North,0,0.0,3.0,85,0.00,,,0.00,WUHU216DAVISVP2,2013-06-23 07:59:00,
2013-06-23 01:04:00,61.0,56.5,29.80,North,0,0.0,2.0,85,0.00,,,0.00,WUHU216DAVISVP2,2013-06-23 08:04:00,
2013-06-23 01:09:00,72.4,56.8,29.84,North,349,0.0,0.0,58,0.00,,,0.00,WUHU216DAVISVP2,2013-06-23 08:09:00,
2013-06-23 01:14:00,60.9,56.4,29.80,North,0,0.0,2.0,85,0.00,,,0.00,WUHU216DAVISVP2,2013-06-23 08:14:00,
2013-06-23 01:19:00,60.8,56.6,29.80,NE,45,0.0,2.0,86,0.00,,,0.00,WUHU216DAVISVP2,2013-06-23 08:19:00,
2013-06-23 01:24:00,60.7,56.5,29.80,North,0,0.0,1.0,86,0.00,,,0.00,WUHU216DAVISVP2,2013-06-23 08:24:00,
2013-06-23 01:28:00,72.4,56.8,29.84,North,349,0.0,0.0,58,0.00,,,0.00,WUHU216DAVISVP2,2013-06-23 08:28:00,
2013-06-23 01:29:00,60.7,56.5,29.80,ENE,68,0.0,1.0,86,0.00,,,0.00,WUHU216DAVISVP2,2013-06-23 08:29:00,
2013-06-23 01:34:00,60.7,56.5,29.80,North,0,0.0,1.0,86,0.00,,,0.00,WUHU216DAVISVP2,2013-06-23 08:34:00,
2013-06-23 01:39:00,60.7,56.5,29.80,North,0,0.0,1.0,86,0.00,,,0.00,WUHU216DAVISVP2,2013-06-23 08:39:00,
2013-06-23 01:44:00,60.6,56.4,29.80,North,0,0.0,1.0,86,0.00,,,0.00,WUHU216DAVISVP2,2013-06-23 08:44:00,
2013-06-23 01:49:00,60.6,56.4,29.80,North,0,0.0,0.0,86,0.00,,,0.00,WUHU216DAVISVP2,2013-06-23 08:49:00,
2013-06-23 01:54:00,60.5,56.3,29.80,North,0,0.0,1.0,86,0.00,,,0.00,WUHU216DAVISVP2,2013-06-23 08:54:00,
2013-06-23 01:59:00,60.5,56.6,29.79,North,0,0.0,1.0,87,0.00,,,0.00,WUHU216DAVISVP2,2013-06-23 08:59:00,
2013-06-23 02:04:00,60.5,56.6,29.79,ENE,68,0.0,1.0,87,0.00,,,0.00,WUHU216DAVISVP2,2013-06-23 09:04:00,
2013-06-23 02:09:00,60.5,56.6,29.79,North,0,0.0,1.0,87,0.00,,,0.00,WUHU216DAVISVP2,2013-06-23 09:09:00,
2013-06-23 02:14:00,60.4,56.5,29.79,North,0,0.0,1.0,87,0.00,,,0.00,WUHU216DAVISVP2,2013-06-23 09:14:00,
2013-06-23 02:19:00,60.3,56.4,29.79,North,0,0.0,1.0,87,0.00,,,0.00,WUHU216DAVISVP2,2013-06-23 09:19:00,
2013-06-23 02:24:00,60.2,56.3,29.79,North,0,0.0,1.0,87,0.00,,,0.00,WUHU216DAVISVP2,2013-06-23 09:24:00,
2013-06-23 02:29:00,60.1,56.2,29.79,ENE,68,0.0,1.0,87,0.00,,,0.00,WUHU216DAVISVP2,2013-06-23 09:29:00,
2013-06-23 02:34:00,60.0,56.1,29.79,North,0,0.0,1.0,87,0.00,,,0.00,WUHU216DAVISVP2,2013-06-23 09:34:00,
2013-06-23 02:39:00,60.0,56.4,29.79,ENE,68,0.0,1.0,88,0.00,,,0.00,WUHU216DAVISVP2,2013-06-23 09:39:00,
2013-06-23 02:44:00,60.0,56.4,29.79,North,0,0.0,1.0,88,0.00,,,0.00,WUHU216DAVISVP2,2013-06-23 09:44:00,
2013-06-23 02:49:00,59.9,56.3,29.78,North,0,0.0,1.0,88,0.00,,,0.00,WUHU216DAVISVP2,2013-06-23 09:49:00,
2013-06-23 02:54:00,59.9,56.3,29.78,ENE,68,0.0,1.0,88,0.00,,,0.00,WUHU216DAVISVP2,2013-06-23 09:54:00,
2013-06-23 02:59:00,59.8,56.2,29.78,North,0,0.0,1.0,88,0.00,,,0.00,WUHU216DAVISVP2,2013-06-23 09:59:00,
2013-06-23 03:00:00,72.4,56.8,29.84,North,349,0.0,0.0,58,0.00,,,0.00,WUHU216DAVISVP2,2013-06-23 10:00:00,
2013-06-23 03:04:00,59.7,56.1,29.78,North,0,0.0,1.0,88,0.00,,,0.00,WUHU216DAVISVP2,2013-06-23 10:04:00,
2013-06-23 03:09:00,59.7,56.5,29.79,North,0,0.0,1.0,89,0.00,,,0.00,WUHU216DAVISVP2,2013-06-23 10:09:00,
2013-06-23 03:14:00,59.7,56.5,29.79,South,180,0.0,2.0,89,0.00,,,0.00,WUHU216DAVISVP2,2013-06-23 10:14:00,
2013-06-23 03:19:00,59.7,56.5,29.78,North,0,0.0,2.0,89,0.00,,,0.00,WUHU216DAVISVP2,2013-06-23 10:19:00,
2013-06-23 03:24:00,59.7,56.5,29.79,South,180,0.0,1.0,89,0.00,,,0.00,WUHU216DAVISVP2,2013-06-23 10:24:00,
2013-06-23 03:29:00,59.6,56.7,29.79,North,0,0.0,1.0,90,0.00,,,0.00,WUHU216DAVISVP2,2013-06-23 10:29:00,
2013-06-23 03:34:00,59.5,56.6,29.79,North,0,0.0,1.0,90,0.00,,,0.00,WUHU216DAVISVP2,2013-06-23 10:34:00,
2013-06-23 03:39:00,59.5,56.9,29.79,North,0,0.0,0.0,91,0.00,,,0.00,WUHU216DAVISVP2,2013-06-23 10:39:00,
2013-06-23 03:44:00,59.3,56.7,29.79,North,0,0.0,0.0,91,0.00,,,0.00,WUHU216DAVISVP2,2013-06-23 10:44:00,
2013-06-23 03:49:00,59.2,56.6,29.79,North,0,0.0,0.0,91,0.00,,,0.00,WUHU216DAVISVP2,2013-06-23 10:49:00,
2013-06-23 03:54:00,59.1,56.5,29.79,North,0,0.0,0.0,91,0.00,,,0.00,WUHU216DAVISVP2,2013-06-23 10:54:00,
2013-06-23 03:59:00,59.1,56.8,29.79,North,0,0.0,0.0,92,0.00,,,0.00,WUHU216DAVISVP2,2013-06-23 10:59:00,
2013-06-23 04:00:00,72.4,56.8,29.84,North,349,0.0,0.0,58,0.00,,,0.00,WUHU216DAVISVP2,2013-06-23 11:00:00,
2013-06-23 04:04:00,59.0,56.7,29.79,North,0,0.0,0.0,92,0.00,,,0.00,WUHU216DAVISVP2,2013-06-23 11:04:00,
2013-06-23 04:09:00,58.9,56.6,29.79,North,0,0.0,0.0,92,0.00,,,0.00,WUHU216DAVISVP2,2013-06-23 11:09:00,
2013-06-23 04:14:00,58.8,56.5,29.78,North,0,0.0,0.0,92,0.00,,,0.00,WUHU216DAVISVP2,2013-06-23 11:14:00,
2013-06-23 04:19:00,58.8,56.5,29.78,North,0,0.0,0.0,92,0.00,,,0.00,WUHU216DAVISVP2,2013-06-23 11:19:00,
2013-06-23 04:24:00,58.7,56.7,29.79,North,0,0.0,0.0,93,0.00,,,0.00,WUHU216DAVISVP2,2013-06-23 11:24:00,
2013-06-23 04:25:00,72.4,56.8,29.84,North,349,0.0,0.0,58,0.00,,,0.00,WUHU216DAVISVP2,2013-06-23 11:25:00,
2013-06-23 04:29:00,58.7,56.7,29.78,North,0,0.0,0.0,93,0.00,,,0.00,WUHU216DAVISVP2,2013-06-23 11:29:00,
2013-06-23 04:34:00,58.6,56.6,29.78,North,0,0.0,0.0,93,0.00,,,0.00,WUHU216DAVISVP2,2013-06-23 11:34:00,
2013-06-23 04:39:00,58.5,56.5,29.79,North,0,0.0,0.0,93,0.00,,,0.00,WUHU216DAVISVP2,2013-06-23 11:39:00,
2013-06-23 04:44:00,58.5,56.5,29.78,North,0,0.0,0.0,93,0.00,,,0.00,WUHU216DAVISVP2,2013-06-23 11:44:00,
2013-06-23 04:49:00,58.4,56.4,29.78,North,0,0.0,0.0,93,0.00,,,0.00,WUHU216DAVISVP2,2013-06-23 11:49:00,
2013-06-23 04:54:00,58.4,56.4,29.78,North,0,0.0,0.0,93,0.00,,,0.00,WUHU216DAVISVP2,2013-06-23 11:54:00,
2013-06-23 04:59:00,58.3,56.3,29.78,North,0,0.0,0.0,93,0.00,,,0.00,WUHU216DAVISVP2,2013-06-23 11:59:00,
2013-06-23 05:04:00,58.2,56.2,29.78,North,0,0.0,0.0,93,0.00,,,0.00,WUHU216DAVISVP2,2013-06-23 12:04:00,
2013-06-23 05:09:00,58.2,56.2,29.78,North,0,0.0,0.0,93,0.00,,,0.00,WUHU216DAVISVP2,2013-06-23 12:09:00,
2013-06-23 05:14:00,58.1,56.4,29.78,North,0,0.0,0.0,94,0.00,,,0.00,WUHU216DAVISVP2,2013-06-23 12:14:00,
2013-06-23 05:19:00,58.1,56.4,29.78,North,0,0.0,0.0,94,0.00,,,0.00,WUHU216DAVISVP2,2013-06-23 12:19:00,
2013-06-23 05:24:00,58.0,56.3,29.78,North,0,0.0,0.0,94,0.00,,,0.00,WUHU216DAVISVP2,2013-06-23 12:24:00,
2013-06-23 05:29:00,58.0,56.3,29.78,North,0,0.0,0.0,94,0.00,,,0.00,WUHU216DAVISVP2,2013-06-23 12:29:00,
2013-06-23 05:34:00,58.0,56.3,29.78,North,0,0.0,0.0,94,0.00,,,0.00,WUHU216DAVISVP2,2013-06-23 12:34:00,
2013-06-23 05:39:00,58.0,56.3,29.78,North,0,0.0,0.0,94,0.00,,,0.00,WUHU216DAVISVP2,2013-06-23 12:39:00,
2013-06-23 05:44:00,58.0,56.3,29.78,North,0,0.0,0.0,94,0.00,,,0.00,WUHU216DAVISVP2,2013-06-23 12:44:00,
2013-06-23 05:49:00,58.0,56.6,29.78,North,0,0.0,0.0,95,0.00,,,0.00,WUHU216DAVISVP2,2013-06-23 12:49:00,
2013-06-23 05:54:00,58.1,56.7,29.78,North,0,0.0,0.0,95,0.00,,,0.00,WUHU216DAVISVP2,2013-06-23 12:54:00,
2013-06-23 05:59:00,58.1,56.7,29.78,South,180,0.0,1.0,95,0.00,,,0.00,WUHU216DAVISVP2,2013-06-23 12:59:00,
2013-06-23 06:04:00,58.2,56.8,29.78,North,0,0.0,1.0,95,0.00,,,0.00,WUHU216DAVISVP2,2013-06-23 13:04:00,
2013-06-23 06:09:00,58.3,56.9,29.78,North,0,0.0,1.0,95,0.00,,,0.00,WUHU216DAVISVP2,2013-06-23 13:09:00,
2013-06-23 06:14:00,58.4,57.0,29.78,North,0,0.0,0.0,95,0.00,,,0.00,WUHU216DAVISVP2,2013-06-23 13:14:00,
2013-06-23 06:19:00,58.5,57.4,29.77,North,0,0.0,0.0,96,0.01,,,0.01,WUHU216DAVISVP2,2013-06-23 13:19:00,
2013-06-23 06:24:00,58.5,57.4,29.77,North,0,0.0,0.0,96,0.01,,,0.01,WUHU216DAVISVP2,2013-06-23 13:24:00,
2013-06-23 06:29:00,58.5,57.1,29.77,North,0,0.0,0.0,95,0.01,,,0.01,WUHU216DAVISVP2,2013-06-23 13:29:00,
2013-06-23 06:34:00,58.6,57.2,29.77,North,0,0.0,0.0,95,0.01,,,0.01,WUHU216DAVISVP2,2013-06-23 13:34:00,
2013-06-23 06:39:00,58.6,57.2,29.77,North,0,0.0,0.0,95,0.01,,,0.01,WUHU216DAVISVP2,2013-06-23 13:39:00,
2013-06-23 06:44:00,58.6,57.5,29.77,North,0,0.0,0.0,96,0.01,,,0.01,WUHU216DAVISVP2,2013-06-23 13:44:00,
2013-06-23 06:49:00,58.7,57.6,29.77,North,0,0.0,0.0,96,0.01,,,0.01,WUHU216DAVISVP2,2013-06-23 13:49:00,
2013-06-23 06:54:00,58.7,57.6,29.77,North,0,0.0,0.0,96,0.01,,,0.01,WUHU216DAVISVP2,2013-06-23 13:54:00,
2013-06-23 06:59:00,58.8,57.7,29.77,North,0,0.0,0.0,96,0.01,,,0.01,WUHU216DAVISVP2,2013-06-23 13:59:00,
2013-06-23 07:04:00,58.8,57.7,29.77,North,0,0.0,0.0,96,0.01,,,0.01,WUHU216DAVISVP2,2013-06-23 14:04:00,
2013-06-23 07:09:00,58.9,57.5,29.77,North,0,0.0,0.0,95,0.01,,,0.01,WUHU216DAVISVP2,2013-06-23 14:09:00,
2013-06-23 07:14:00,58.9,57.5,29.77,North,0,0.0,0.0,95,0.01,,,0.01,WUHU216DAVISVP2,2013-06-23 14:14:00,
2013-06-23 07:19:00,59.0,57.9,29.77,North,0,0.0,0.0,96,0.00,,,0.01,WUHU216DAVISVP2,2013-06-23 14:19:00,
2013-06-23 07:24:00,59.1,58.0,29.76,North,0,0.0,0.0,96,0.00,,,0.01,WUHU216DAVISVP2,2013-06-23 14:24:00,
2013-06-23 07:29:00,59.3,58.2,29.76,North,0,0.0,0.0,96,0.00,,,0.01,WUHU216DAVISVP2,2013-06-23 14:29:00,
2013-06-23 07:34:00,59.4,58.0,29.76,North,0,0.0,0.0,95,0.00,,,0.01,WUHU216DAVISVP2,2013-06-23 14:34:00,
2013-06-23 07:39:00,59.5,58.1,29.76,North,0,0.0,0.0,95,0.00,,,0.01,WUHU216DAVISVP2,2013-06-23 14:39:00,
2013-06-23 07:44:00,59.6,58.2,29.76,North,0,0.0,0.0,95,0.00,,,0.01,WUHU216DAVISVP2,2013-06-23 14:44:00,
2013-06-23 07:49:00,59.7,58.3,29.76,North,0,0.0,0.0,95,0.00,,,0.01,WUHU216DAVISVP2,2013-06-23 14:49:00,
2013-06-23 07:54:00,59.8,58.4,29.76,North,0,0.0,0.0,95,0.00,,,0.01,WUHU216DAVISVP2,2013-06-23 14:54:00,
2013-06-23 07:59:00,59.9,58.5,29.76,North,0,0.0,0.0,95,0.00,,,0.01,WUHU216DAVISVP2,2013-06-23 14:59:00,
2013-06-23 08:04:00,60.0,58.6,29.76,North,0,0.0,0.0,95,0.00,,,0.01,WUHU216DAVISVP2,2013-06-23 15:04:00,
2013-06-23 08:09:00,60.1,58.7,29.76,North,0,0.0,0.0,95,0.00,,,0.01,WUHU216DAVISVP2,2013-06-23 15:09:00,
2013-06-23 08:14:00,60.2,58.8,29.76,North,0,0.0,0.0,95,0.00,,,0.01,WUHU216DAVISVP2,2013-06-23 15:14:00,
2013-06-23 08:19:00,60.3,58.9,29.76,North,0,0.0,0.0,95,0.00,,,0.01,WUHU216DAVISVP2,2013-06-23 15:19:00,
2013-06-23 08:24:00,60.4,59.0,29.76,North,0,0.0,0.0,95,0.00,,,0.01,WUHU216DAVISVP2,2013-06-23 15:24:00,
2013-06-23 08:29:00,60.6,59.2,29.76,North,0,0.0,0.0,95,0.00,,,0.01,WUHU216DAVISVP2,2013-06-23 15:29:00,
2013-06-23 08:34:00,60.7,59.3,29.76,North,0,0.0,0.0,95,0.00,,,0.01,WUHU216DAVISVP2,2013-06-23 15:34:00,
2013-06-23 08:39:00,60.8,59.1,29.76,North,0,0.0,0.0,94,0.00,,,0.01,WUHU216DAVISVP2,2013-06-23 15:39:00,
2013-06-23 08:44:00,61.0,59.6,29.75,ENE,68,0.0,2.0,95,0.00,,,0.01,WUHU216DAVISVP2,2013-06-23 15:44:00,
2013-06-23 08:49:00,61.2,59.8,29.75,North,0,0.0,2.0,95,0.00,,,0.01,WUHU216DAVISVP2,2013-06-23 15:49:00,
2013-06-23 08:54:00,61.2,59.5,29.75,ENE,68,0.0,1.0,94,0.00,,,0.01,WUHU216DAVISVP2,2013-06-23 15:54:00,
2013-06-23 08:59:00,61.2,59.5,29.75,ENE,68,0.0,1.0,94,0.00,,,0.01,WUHU216DAVISVP2,2013-06-23 15:59:00,
2013-06-23 09:04:00,61.2,59.5,29.75,North,0,0.0,1.0,94,0.01,,,0.02,WUHU216DAVISVP2,2013-06-23 16:04:00,
2013-06-23 09:09:00,61.3,59.6,29.75,North,0,0.0,1.0,94,0.01,,,0.02,WUHU216DAVISVP2,2013-06-23 16:09:00,
2013-06-23 09:14:00,61.3,59.6,29.75,North,0,0.0,0.0,94,0.01,,,0.02,WUHU216DAVISVP2,2013-06-23 16:14:00,
2013-06-23 09:19:00,61.3,59.3,29.75,North,0,0.0,0.0,93,0.01,,,0.02,WUHU216DAVISVP2,2013-06-23 16:19:00,
2013-06-23 09:24:00,61.3,59.0,29.75,ENE,68,0.0,1.0,92,0.01,,,0.02,WUHU216DAVISVP2,2013-06-23 16:24:00,
2013-06-23 09:29:00,61.6,59.6,29.75,ENE,68,0.0,2.0,93,0.01,,,0.02,WUHU216DAVISVP2,2013-06-23 16:29:00,
2013-06-23 09:34:00,61.7,60.0,29.75,North,0,0.0,2.0,94,0.01,,,0.02,WUHU216DAVISVP2,2013-06-23 16:34:00,
2013-06-23 09:39:00,61.9,60.2,29.75,ENE,68,0.0,1.0,94,0.01,,,0.02,WUHU216DAVISVP2,2013-06-23 16:39:00,
2013-06-23 09:44:00,62.0,60.0,29.75,North,0,0.0,4.0,93,0.01,,,0.02,WUHU216DAVISVP2,2013-06-23 16:44:00,
2013-06-23 09:49:00,62.0,60.0,29.74,North,0,0.0,4.0,93,0.01,,,0.02,WUHU216DAVISVP2,2013-06-23 16:49:00,
2013-06-23 09:54:00,62.1,59.4,29.74,NE,45,0.0,1.0,91,0.01,,,0.02,WUHU216DAVISVP2,2013-06-23 16:54:00,
2013-06-23 09:59:00,62.2,59.8,29.74,NNE,23,0.0,2.0,92,0.01,,,0.02,WUHU216DAVISVP2,2013-06-23 16:59:00,
2013-06-23 10:04:00,62.2,59.8,29.73,NE,45,2.0,3.0,92,0.00,,,0.02,WUHU216DAVISVP2,2013-06-23 17:04:00,
2013-06-23 10:09:00,62.2,59.8,29.73,NE,45,0.0,3.0,92,0.00,,,0.02,WUHU216DAVISVP2,2013-06-23 17:09:00,
2013-06-23 10:14:00,62.2,59.8,29.73,North,0,0.0,3.0,92,0.00,,,0.02,WUHU216DAVISVP2,2013-06-23 17:14:00,
2013-06-23 10:18:00,72.4,56.8,29.84,North,349,0.0,0.0,58,0.00,,,0.00,WUHU216DAVISVP2,2013-06-23 17:18:00,
2013-06-23 10:19:00,62.1,59.4,29.73,North,0,0.0,3.0,91,0.00,,,0.02,WUHU216DAVISVP2,2013-06-23 17:19:00,
2013-06-23 10:24:00,62.1,59.4,29.73,North,0,1.0,3.0,91,0.00,,,0.02,WUHU216DAVISVP2,2013-06-23 17:24:00,
2013-06-23 10:29:00,62.1,59.4,29.73,NNE,23,1.0,2.0,91,0.00,,,0.02,WUHU216DAVISVP2,2013-06-23 17:29:00,
2013-06-23 10:34:00,62.2,60.2,29.72,NNE,23,0.0,2.0,93,0.00,,,0.02,WUHU216DAVISVP2,2013-06-23 17:34:00,
2013-06-23 10:39:00,62.3,59.9,29.73,NNE,23,0.0,2.0,92,0.00,,,0.02,WUHU216DAVISVP2,2013-06-23 17:39:00,
2013-06-23 10:44:00,62.5,60.1,29.72,North,0,2.0,3.0,92,0.01,,,0.03,WUHU216DAVISVP2,2013-06-23 17:44:00,
2013-06-23 10:49:00,62.4,59.7,29.72,NNW,338,0.0,3.0,91,0.01,,,0.03,WUHU216DAVISVP2,2013-06-23 17:49:00,
2013-06-23 10:54:00,62.5,59.5,29.72,NNE,23,0.0,3.0,90,0.01,,,0.03,WUHU216DAVISVP2,2013-06-23 17:54:00,
2013-06-23 10:59:00,62.8,60.4,29.72,North,0,0.0,3.0,92,0.01,,,0.03,WUHU216DAVISVP2,2013-06-23 17:59:00,
2013-06-23 11:04:00,62.9,60.2,29.72,NNW,338,1.0,4.0,91,0.01,,,0.03,WUHU216DAVISVP2,2013-06-23 18:04:00,
2013-06-23 11:09:00,62.8,60.1,29.72,NNW,338,1.0,4.0,91,0.01,,,0.03,WUHU216DAVISVP2,2013-06-23 18:09:00,
2013-06-23 11:14:00,62.9,60.5,29.72,NNE,23,1.0,3.0,92,0.01,,,0.03,WUHU216DAVISVP2,2013-06-23 18:14:00,
2013-06-23 11:19:00,62.9,60.2,29.72,NNW,338,0.0,4.0,91,0.01,,,0.03,WUHU216DAVISVP2,2013-06-23 18:19:00,
2013-06-23 11:24:00,63.0,60.3,29.72,NNW,338,0.0,4.0,91,0.01,,,0.03,WUHU216DAVISVP2,2013-06-23 18:24:00,
2013-06-23 11:29:00,63.1,60.4,29.71,West,270,0.0,3.0,91,0.01,,,0.03,WUHU216DAVISVP2,2013-06-23 18:29:00,
2013-06-23 11:32:00,72.4,56.8,29.84,North,349,0.0,0.0,58,0.00,,,0.00,WUHU216DAVISVP2,2013-06-23 18:32:00,
2013-06-23 11:34:00,63.4,60.7,29.71,NNW,338,0.0,3.0,91,0.01,,,0.03,WUHU216DAVISVP2,2013-06-23 18:34:00,
2013-06-23 11:39:00,63.6,60.9,29.71,NNW,338,0.0,2.0,91,0.00,,,0.03,WUHU216DAVISVP2,2013-06-23 18:39:00,
2013-06-23 11:44:00,63.5,60.2,29.71,NNW,338,0.0,4.0,89,0.00,,,0.03,WUHU216DAVISVP2,2013-06-23 18:44:00,
2013-06-23 11:49:00,63.6,60.9,29.71,NNW,338,1.0,4.0,91,0.00,,,0.03,WUHU216DAVISVP2,2013-06-23 18:49:00,
2013-06-23 11:54:00,63.6,60.6,29.71,NNW,338,1.0,3.0,90,0.00,,,0.03,WUHU216DAVISVP2,2013-06-23 18:54:00,
2013-06-23 11:59:00,63.6,60.3,29.71,NNW,338,1.0,3.0,89,0.00,,,0.03,WUHU216DAVISVP2,2013-06-23 18:59:00,
2013-06-23 12:04:00,63.5,60.2,29.71,North,0,0.0,2.0,89,0.00,,,0.03,WUHU216DAVISVP2,2013-06-23 19:04:00,
2013-06-23 12:09:00,63.6,60.9,29.71,North,0,0.0,2.0,91,0.00,,,0.03,WUHU216DAVISVP2,2013-06-23 19:09:00,
2013-06-23 12:14:00,63.8,61.1,29.71,NNW,338,0.0,3.0,91,0.00,,,0.03,WUHU216DAVISVP2,2013-06-23 19:14:00,
2013-06-23 12:19:00,63.9,60.9,29.71,WNW,293,0.0,3.0,90,0.00,,,0.03,WUHU216DAVISVP2,2013-06-23 19:19:00,
2013-06-23 12:24:00,63.8,60.8,29.71,WNW,293,0.0,2.0,90,0.00,,,0.03,WUHU216DAVISVP2,2013-06-23 19:24:00,
2013-06-23 12:29:00,63.8,61.1,29.71,North,0,0.0,2.0,91,0.00,,,0.03,WUHU216DAVISVP2,2013-06-23 19:29:00,
2013-06-23 12:34:00,63.8,60.8,29.70,North,0,0.0,2.0,90,0.00,,,0.03,WUHU216DAVISVP2,2013-06-23 19:34:00,
2013-06-23 12:39:00,63.7,60.7,29.70,North,0,0.0,3.0,90,0.00,,,0.03,WUHU216DAVISVP2,2013-06-23 19:39:00,
2013-06-23 12:44:00,63.7,60.7,29.70,North,0,0.0,3.0,90,0.00,,,0.03,WUHU216DAVISVP2,2013-06-23 19:44:00,
2013-06-23 12:49:00,63.8,60.8,29.70,North,0,0.0,3.0,90,0.00,,,0.03,WUHU216DAVISVP2,2013-06-23 19:49:00,
2013-06-23 12:54:00,63.8,60.8,29.70,North,0,0.0,1.0,90,0.00,,,0.03,WUHU216DAVISVP2,2013-06-23 19:54:00,
2013-06-23 12:59:00,63.9,60.9,29.70,North,0,0.0,2.0,90,0.00,,,0.03,WUHU216DAVISVP2,2013-06-23 19:59:00,
2013-06-23 13:04:00,64.0,60.7,29.70,North,0,0.0,2.0,89,0.00,,,0.03,WUHU216DAVISVP2,2013-06-23 20:04:00,
2013-06-23 13:09:00,64.1,60.5,29.70,North,0,0.0,2.0,88,0.00,,,0.03,WUHU216DAVISVP2,2013-06-23 20:09:00,
2013-06-23 13:14:00,64.4,60.8,29.70,NW,315,0.0,4.0,88,0.00,,,0.03,WUHU216DAVISVP2,2013-06-23 20:14:00,
2013-06-23 13:19:00,64.4,61.1,29.70,NNW,338,1.0,4.0,89,0.00,,,0.03,WUHU216DAVISVP2,2013-06-23 20:19:00,
2013-06-23 13:24:00,64.3,60.7,29.69,North,0,0.0,3.0,88,0.00,,,0.03,WUHU216DAVISVP2,2013-06-23 20:24:00,
2013-06-23 13:29:00,64.3,60.7,29.69,North,0,1.0,3.0,88,0.00,,,0.03,WUHU216DAVISVP2,2013-06-23 20:29:00,
2013-06-23 13:34:00,64.1,60.8,29.69,North,0,0.0,3.0,89,0.00,,,0.03,WUHU216DAVISVP2,2013-06-23 20:34:00,
2013-06-23 13:39:00,64.1,60.8,29.69,NNW,338,0.0,3.0,89,0.00,,,0.03,WUHU216DAVISVP2,2013-06-23 20:39:00,
2013-06-23 13:44:00,64.2,61.2,29.69,NNW,338,0.0,3.0,90,0.00,,,0.03,WUHU216DAVISVP2,2013-06-23 20:44:00,
2013-06-23 13:49:00,64.3,61.3,29.69,NNW,338,0.0,2.0,90,0.00,,,0.03,WUHU216DAVISVP2,2013-06-23 20:49:00,
2013-06-23 13:54:00,64.5,61.2,29.68,NNW,338,0.0,1.0,89,0.00,,,0.03,WUHU216DAVISVP2,2013-06-23 20:54:00,
2013-06-23 13:59:00,64.7,61.4,29.68,NW,315,0.0,1.0,89,0.00,,,0.03,WUHU216DAVISVP2,2013-06-23 20:59:00,
2013-06-23 14:13:00,64.5,60.9,29.68,NNE,17,0.0,0.0,88,0.00,,,0.03,WUHU216DAVISVP2,2013-06-23 21:13:00,
2013-06-23 14:18:00,64.7,61.7,29.68,NNE,17,0.0,1.0,90,0.00,,,0.03,WUHU216DAVISVP2,2013-06-23 21:18:00,
2013-06-23 14:23:00,64.8,61.2,29.68,NNE,17,0.0,1.0,88,0.00,,,0.03,WUHU216DAVISVP2,2013-06-23 21:23:00,
2013-06-23 14:28:00,64.9,61.6,29.68,North,11,0.0,1.0,89,0.00,,,0.03,WUHU216DAVISVP2,2013-06-23 21:28:00,
2013-06-23 14:32:00,65.1,61.4,29.68,North,5,1.0,1.0,88,0.00,,,0.03,WUHU216DAVISVP2,2013-06-23 21:32:00,
2013-06-23 14:37:00,64.9,61.3,29.68,NNW,341,0.0,3.0,88,0.00,,,0.03,WUHU216DAVISVP2,2013-06-23 21:37:00,
2013-06-23 14:42:00,64.9,61.9,29.67,NNW,340,0.0,3.0,90,0.00,,,0.03,WUHU216DAVISVP2,2013-06-23 21:42:00,
2013-06-23 14:47:00,64.7,61.1,29.67,North,350,2.0,3.0,88,0.00,,,0.03,WUHU216DAVISVP2,2013-06-23 21:47:00,
2013-06-23 14:52:00,64.7,61.4,29.67,NW,319,1.0,3.0,89,0.00,,,0.03,WUHU216DAVISVP2,2013-06-23 21:52:00,
2013-06-23 14:57:00,64.7,61.4,29.67,NW,319,0.0,2.0,89,0.00,,,0.03,WUHU216DAVISVP2,2013-06-23 21:57:00,
2013-06-23 15:02:00,64.7,61.4,29.67,NE,38,1.0,2.0,89,0.00,,,0.03,WUHU216DAVISVP2,2013-06-23 22:02:00,
2013-06-23 15:07:00,64.8,61.8,29.67,NE,38,0.0,2.0,90,0.00,,,0.03,WUHU216DAVISVP2,2013-06-23 22:07:00,
2013-06-23 15:12:00,64.8,61.5,29.66,NNE,20,1.0,2.0,89,0.00,,,0.03,WUHU216DAVISVP2,2013-06-23 22:12:00,
2013-06-23 15:17:00,64.8,61.5,29.66,NW,323,0.0,3.0,89,0.00,,,0.03,WUHU216DAVISVP2,2013-06-23 22:17:00,
2013-06-23 15:22:00,64.9,62.2,29.66,NW,311,0.0,3.0,91,0.00,,,0.03,WUHU216DAVISVP2,2013-06-23 22:22:00,
2013-06-23 15:27:00,64.9,62.2,29.66,NW,311,0.0,1.0,91,0.00,,,0.03,WUHU216DAVISVP2,2013-06-23 22:27:00,
2013-06-23 15:32:00,64.9,62.2,29.66,NW,311,0.0,0.0,91,0.00,,,0.03,WUHU216DAVISVP2,2013-06-23 22:32:00,
2013-06-23 15:37:00,65.0,62.6,29.66,NW,305,0.0,1.0,92,0.00,,,0.03,WUHU216DAVISVP2,2013-06-23 22:37:00,
2013-06-23 15:42:00,65.0,62.3,29.66,NW,321,0.0,1.0,91,0.00,,,0.03,WUHU216DAVISVP2,2013-06-23 22:42:00,
2013-06-23 15:47:00,65.0,62.3,29.66,NW,320,0.0,1.0,91,0.00,,,0.03,WUHU216DAVISVP2,2013-06-23 22:47:00,
2013-06-23 15:52:00,65.0,62.6,29.66,WNW,286,0.0,2.0,92,0.00,,,0.03,WUHU216DAVISVP2,2013-06-23 22:52:00,
2013-06-23 15:57:00,65.0,62.6,29.66,SW,234,0.0,2.0,92,0.00,,,0.03,WUHU216DAVISVP2,2013-06-23 22:57:00,
2013-06-23 16:02:00,64.9,62.2,29.66,WNW,292,0.0,2.0,91,0.00,,,0.03,WUHU216DAVISVP2,2013-06-23 23:02:00,
2013-06-23 16:07:00,64.8,62.1,29.65,WNW,292,0.0,1.0,91,0.00,,,0.03,WUHU216DAVISVP2,2013-06-23 23:07:00,
2013-06-23 16:12:00,64.8,62.4,29.65,WNW,292,0.0,0.0,92,0.00,,,0.03,WUHU216DAVISVP2,2013-06-23 23:12:00,
2013-06-23 16:17:00,64.8,62.4,29.65,WNW,291,0.0,1.0,92,0.00,,,0.03,WUHU216DAVISVP2,2013-06-23 23:17:00,
2013-06-23 16:22:00,64.9,62.8,29.65,WNW,299,0.0,1.0,93,0.00,,,0.03,WUHU216DAVISVP2,2013-06-23 23:22:00,
2013-06-23 16:27:00,65.0,62.6,29.65,NW,305,0.0,0.0,92,0.00,,,0.03,WUHU216DAVISVP2,2013-06-23 23:27:00,
2013-06-23 16:32:00,65.0,62.6,29.65,NW,305,0.0,1.0,92,0.00,,,0.03,WUHU216DAVISVP2,2013-06-23 23:32:00,
2013-06-23 16:37:00,65.0,62.6,29.65,NW,305,0.0,1.0,92,0.00,,,0.03,WUHU216DAVISVP2,2013-06-23 23:37:00,
2013-06-23 16:42:00,65.0,62.6,29.65,SW,235,0.0,1.0,92,0.00,,,0.03,WUHU216DAVISVP2,2013-06-23 23:42:00,
2013-06-23 16:47:00,64.9,62.8,29.65,SW,235,0.0,1.0,93,0.00,,,0.04,WUHU216DAVISVP2,2013-06-23 23:47:00,
2013-06-23 16:52:00,64.7,62.3,29.65,SW,234,0.0,1.0,92,0.01,,,0.04,WUHU216DAVISVP2,2013-06-23 23:52:00,
2013-06-23 16:57:00,64.6,62.5,29.64,SW,234,0.0,1.0,93,0.01,,,0.04,WUHU216DAVISVP2,2013-06-23 23:57:00,
2013-06-23 17:02:00,64.4,62.3,29.64,SW,234,0.0,0.0,93,0.02,,,0.05,WUHU216DAVISVP2,2013-06-24 00:02:00,
2013-06-23 17:07:00,64.4,62.3,29.64,SW,234,0.0,0.0,93,0.02,,,0.05,WUHU216DAVISVP2,2013-06-24 00:07:00,
2013-06-23 17:12:00,64.4,62.3,29.63,SW,234,0.0,0.0,93,0.03,,,0.07,WUHU216DAVISVP2,2013-06-24 00:12:00,
2013-06-23 17:17:00,64.5,62.7,29.63,SW,234,0.0,0.0,94,0.04,,,0.08,WUHU216DAVISVP2,2013-06-24 00:17:00,
2013-06-23 17:22:00,64.4,62.6,29.63,SW,234,0.0,0.0,94,0.06,,,0.09,WUHU216DAVISVP2,2013-06-24 00:22:00,
2013-06-23 17:27:00,64.4,62.6,29.63,SW,234,0.0,0.0,94,0.07,,,0.10,WUHU216DAVISVP2,2013-06-24 00:27:00,
2013-06-23 17:32:00,64.4,62.6,29.63,SW,234,0.0,0.0,94,0.07,,,0.10,WUHU216DAVISVP2,2013-06-24 00:32:00,
2013-06-23 17:37:00,64.3,62.5,29.63,SW,234,0.0,0.0,94,0.07,,,0.10,WUHU216DAVISVP2,2013-06-24 00:37:00,
2013-06-23 17:42:00,64.3,62.8,29.62,SW,234,0.0,0.0,95,0.07,,,0.10,WUHU216DAVISVP2,2013-06-24 00:42:00,
2013-06-23 17:47:00,64.5,63.0,29.62,SW,234,0.0,1.0,95,0.06,,,0.10,WUHU216DAVISVP2,2013-06-24 00:47:00,
2013-06-23 17:52:00,64.4,62.6,29.61,SW,234,0.0,1.0,94,0.06,,,0.10,WUHU216DAVISVP2,2013-06-24 00:52:00,
2013-06-23 17:57:00,64.5,63.0,29.61,SW,234,0.0,1.0,95,0.06,,,0.10,WUHU216DAVISVP2,2013-06-24 00:57:00,
2013-06-23 18:04:00,64.5,63.0,29.61,West,270,0.0,1.0,95,0.05,,,0.10,WUHU216DAVISVP2,2013-06-24 01:04:00,
2013-06-23 18:09:00,64.6,63.1,29.61,West,268,0.0,1.0,95,0.04,,,0.10,WUHU216DAVISVP2,2013-06-24 01:09:00,
2013-06-23 18:14:00,64.7,63.2,29.61,NNW,329,0.0,1.0,95,0.03,,,0.10,WUHU216DAVISVP2,2013-06-24 01:14:00,
2013-06-23 18:19:00,64.6,62.8,29.61,NNW,344,1.0,1.0,94,0.02,,,0.10,WUHU216DAVISVP2,2013-06-24 01:19:00,
2013-06-23 18:24:00,64.5,62.7,29.60,NNW,344,0.0,1.0,94,0.01,,,0.10,WUHU216DAVISVP2,2013-06-24 01:24:00,
2013-06-23 18:29:00,64.7,62.9,29.60,NNW,344,0.0,1.0,94,0.00,,,0.10,WUHU216DAVISVP2,2013-06-24 01:29:00,
2013-06-23 18:34:00,64.7,63.2,29.60,NNW,344,0.0,1.0,95,0.00,,,0.10,WUHU216DAVISVP2,2013-06-24 01:34:00,
2013-06-23 18:39:00,64.7,63.2,29.60,NNW,344,0.0,1.0,95,0.00,,,0.10,WUHU216DAVISVP2,2013-06-24 01:39:00,
2013-06-23 18:44:00,64.6,62.8,29.60,NNW,344,0.0,1.0,94,0.00,,,0.10,WUHU216DAVISVP2,2013-06-24 01:44:00,
2013-06-23 18:49:00,64.6,62.8,29.60,NNW,344,0.0,2.0,94,0.00,,,0.10,WUHU216DAVISVP2,2013-06-24 01:49:00,
2013-06-23 18:54:00,64.5,62.7,29.60,NNW,345,0.0,2.0,94,0.00,,,0.10,WUHU216DAVISVP2,2013-06-24 01:54:00,
2013-06-23 18:59:00,64.5,63.0,29.59,NNW,345,0.0,1.0,95,0.00,,,0.10,WUHU216DAVISVP2,2013-06-24 01:59:00,
2013-06-23 19:04:00,64.6,63.1,29.60,NNW,345,0.0,0.0,95,0.00,,,0.10,WUHU216DAVISVP2,2013-06-24 02:04:00,
2013-06-23 19:09:00,64.7,63.2,29.59,NNW,345,0.0,0.0,95,0.00,,,0.10,WUHU216DAVISVP2,2013-06-24 02:09:00,
2013-06-23 19:14:00,64.7,62.9,29.59,NNW,345,0.0,1.0,94,0.00,,,0.10,WUHU216DAVISVP2,2013-06-24 02:14:00,
2013-06-23 19:19:00,64.7,63.2,29.59,NNW,345,0.0,1.0,95,0.00,,,0.10,WUHU216DAVISVP2,2013-06-24 02:19:00,
2013-06-23 19:24:00,64.6,63.1,29.59,NNW,345,0.0,0.0,95,0.00,,,0.10,WUHU216DAVISVP2,2013-06-24 02:24:00,
2013-06-23 19:29:00,64.6,63.1,29.59,NNW,345,0.0,0.0,95,0.00,,,0.10,WUHU216DAVISVP2,2013-06-24 02:29:00,
2013-06-23 19:34:00,64.6,63.1,29.59,NNW,345,0.0,0.0,95,0.00,,,0.10,WUHU216DAVISVP2,2013-06-24 02:34:00,
2013-06-23 19:39:00,64.5,63.0,29.59,NNW,345,0.0,0.0,95,0.00,,,0.10,WUHU216DAVISVP2,2013-06-24 02:39:00,
2013-06-23 19:44:00,64.4,62.9,29.59,NNW,345,0.0,0.0,95,0.00,,,0.10,WUHU216DAVISVP2,2013-06-24 02:44:00,
2013-06-23 19:49:00,64.3,62.8,29.58,NNW,345,0.0,1.0,95,0.00,,,0.10,WUHU216DAVISVP2,2013-06-24 02:49:00,
2013-06-23 19:54:00,64.3,62.8,29.58,NNW,345,0.0,1.0,95,0.00,,,0.10,WUHU216DAVISVP2,2013-06-24 02:54:00,
2013-06-23 19:59:00,64.2,62.7,29.59,NNW,345,0.0,0.0,95,0.00,,,0.10,WUHU216DAVISVP2,2013-06-24 02:59:00,
2013-06-23 20:04:00,64.1,62.6,29.59,NNW,345,0.0,0.0,95,0.00,,,0.10,WUHU216DAVISVP2,2013-06-24 03:04:00,
2013-06-23 20:09:00,64.0,62.5,29.59,NNW,345,0.0,0.0,95,0.00,,,0.10,WUHU216DAVISVP2,2013-06-24 03:09:00,
2013-06-23 20:14:00,63.9,62.4,29.59,NNW,345,0.0,1.0,95,0.00,,,0.10,WUHU216DAVISVP2,2013-06-24 03:14:00,
2013-06-23 20:19:00,63.8,62.6,29.60,WNW,284,5.0,5.0,96,0.00,,,0.10,WUHU216DAVISVP2,2013-06-24 03:19:00,
2013-06-23 20:24:00,63.3,61.5,29.60,WSW,252,2.0,6.0,94,0.01,,,0.11,WUHU216DAVISVP2,2013-06-24 03:24:00,
2013-06-23 20:29:00,62.5,60.4,29.60,SW,219,6.0,11.0,93,0.05,,,0.15,WUHU216DAVISVP2,2013-06-24 03:29:00,
2013-06-23 20:34:00,61.8,59.7,29.60,SW,228,1.0,11.0,93,0.08,,,0.18,WUHU216DAVISVP2,2013-06-24 03:34:00,
2013-06-23 20:39:00,61.3,59.5,29.60,West,277,0.0,4.0,94,0.10,,,0.20,WUHU216DAVISVP2,2013-06-24 03:39:00,
2013-06-23 20:44:00,61.0,59.5,29.60,SW,227,0.0,4.0,95,0.11,,,0.21,WUHU216DAVISVP2,2013-06-24 03:44:00,
2013-06-23 20:49:00,60.9,59.4,29.60,SW,227,0.0,3.0,95,0.11,,,0.21,WUHU216DAVISVP2,2013-06-24 03:49:00,
2013-06-23 20:54:00,60.7,59.2,29.60,SW,227,0.0,2.0,95,0.11,,,0.21,WUHU216DAVISVP2,2013-06-24 03:54:00,
2013-06-23 20:59:00,60.7,59.5,29.60,SW,227,0.0,0.0,96,0.11,,,0.21,WUHU216DAVISVP2,2013-06-24 03:59:00,
2013-06-23 21:01:00,60.7,59.5,29.60,SW,227,0.0,0.0,96,0.11,,,0.21,WUHU216DAVISVP2,2013-06-24 04:01:00,
2013-06-23 21:06:00,60.6,59.4,29.60,SW,227,0.0,1.0,96,0.11,,,0.21,WUHU216DAVISVP2,2013-06-24 04:06:00,
2013-06-23 21:11:00,60.5,59.3,29.60,SW,227,0.0,1.0,96,0.12,,,0.22,WUHU216DAVISVP2,2013-06-24 04:11:00,
2013-06-23 21:16:00,60.5,59.3,29.60,SW,227,0.0,0.0,96,0.12,,,0.22,WUHU216DAVISVP2,2013-06-24 04:16:00,
2013-06-23 21:21:00,60.4,59.3,29.60,SW,227,0.0,0.0,96,0.12,,,0.22,WUHU216DAVISVP2,2013-06-24 04:21:00,
2013-06-23 21:26:00,60.4,59.3,29.60,SW,227,0.0,0.0,96,0.11,,,0.23,WUHU216DAVISVP2,2013-06-24 04:26:00,
2013-06-23 21:31:00,60.3,59.1,29.60,SW,227,0.0,0.0,96,0.06,,,0.23,WUHU216DAVISVP2,2013-06-24 04:31:00,
2013-06-23 21:36:00,60.3,59.1,29.61,SW,227,0.0,0.0,96,0.04,,,0.23,WUHU216DAVISVP2,2013-06-24 04:36:00,
2013-06-23 21:41:00,60.2,59.3,29.61,SW,227,0.0,0.0,97,0.02,,,0.23,WUHU216DAVISVP2,2013-06-24 04:41:00,
2013-06-23 21:46:00,60.2,59.3,29.61,SW,227,0.0,1.0,97,0.02,,,0.23,WUHU216DAVISVP2,2013-06-24 04:46:00,
2013-06-23 21:51:00,60.1,59.2,29.61,SW,227,0.0,1.0,97,0.02,,,0.23,WUHU216DAVISVP2,2013-06-24 04:51:00,
2013-06-23 21:56:00,60.1,59.2,29.61,SW,227,0.0,1.0,97,0.02,,,0.23,WUHU216DAVISVP2,2013-06-24 04:56:00,
2013-06-23 22:01:00,60.0,59.1,29.61,SW,229,0.0,2.0,97,0.02,,,0.23,WUHU216DAVISVP2,2013-06-24 05:01:00,
2013-06-23 22:06:00,59.9,58.7,29.61,NW,322,0.0,2.0,96,0.02,,,0.23,WUHU216DAVISVP2,2013-06-24 05:06:00,
2013-06-23 22:11:00,59.8,58.9,29.61,NW,322,0.0,2.0,97,0.01,,,0.23,WUHU216DAVISVP2,2013-06-24 05:11:00,
2013-06-23 22:16:00,59.8,58.9,29.61,NW,322,0.0,0.0,97,0.01,,,0.23,WUHU216DAVISVP2,2013-06-24 05:16:00,
2013-06-23 22:21:00,59.7,58.8,29.61,NW,322,0.0,0.0,97,0.01,,,0.23,WUHU216DAVISVP2,2013-06-24 05:21:00,
2013-06-23 22:26:00,59.6,58.7,29.61,NW,322,0.0,0.0,97,0.00,,,0.23,WUHU216DAVISVP2,2013-06-24 05:26:00,
2013-06-23 22:31:00,59.5,58.6,29.61,NW,322,0.0,0.0,97,0.00,,,0.23,WUHU216DAVISVP2,2013-06-24 05:31:00,
2013-06-23 22:36:00,59.4,58.5,29.61,NW,322,0.0,0.0,97,0.01,,,0.24,WUHU216DAVISVP2,2013-06-24 05:36:00,
2013-06-23 22:41:00,59.3,58.4,29.61,NW,322,0.0,0.0,97,0.01,,,0.24,WUHU216DAVISVP2,2013-06-24 05:41:00,
2013-06-23 22:47:00,59.2,58.3,29.61,NW,322,0.0,0.0,97,0.01,,,0.24,WUHU216DAVISVP2,2013-06-24 05:47:00,
2013-06-23 22:52:00,59.1,58.2,29.61,NW,322,0.0,0.0,97,0.01,,,0.24,WUHU216DAVISVP2,2013-06-24 05:52:00,
2013-06-23 22:57:00,59.0,58.2,29.61,NW,322,0.0,0.0,97,0.01,,,0.24,WUHU216DAVISVP2,2013-06-24 05:57:00,
2013-06-23 23:02:00,58.9,58.1,29.61,NW,322,0.0,0.0,97,0.01,,,0.24,WUHU216DAVISVP2,2013-06-24 06:02:00,
2013-06-23 23:07:00,58.9,58.1,29.61,NW,322,0.0,0.0,97,0.01,,,0.24,WUHU216DAVISVP2,2013-06-24 06:07:00,
2013-06-23 23:12:00,58.9,58.0,29.61,NW,322,0.0,0.0,97,0.01,,,0.24,WUHU216DAVISVP2,2013-06-24 06:12:00,
2013-06-23 23:17:00,58.8,57.9,29.61,NW,322,0.0,0.0,97,0.01,,,0.24,WUHU216DAVISVP2,2013-06-24 06:17:00,
2013-06-23 23:23:00,58.8,57.9,29.61,NW,322,0.0,0.0,97,0.01,,,0.24,WUHU216DAVISVP2,2013-06-24 06:23:00,
2013-06-23 23:28:00,58.8,57.9,29.61,NW,322,0.0,0.0,97,0.01,,,0.24,WUHU216DAVISVP2,2013-06-24 06:28:00,
2013-06-23 23:33:00,58.8,57.9,29.61,NW,322,0.0,0.0,97,0.01,,,0.24,WUHU216DAVISVP2,2013-06-24 06:33:00,
2013-06-23 23:38:00,58.8,57.9,29.61,NW,322,0.0,0.0,97,0.00,,,0.24,WUHU216DAVISVP2,2013-06-24 06:38:00,
2013-06-23 23:43:00,58.8,57.9,29.60,NW,322,0.0,0.0,97,0.00,,,0.24,WUHU216DAVISVP2,2013-06-24 06:43:00,
2013-06-23 23:49:00,58.8,57.9,29.60,NW,322,0.0,0.0,97,0.00,,,0.24,WUHU216DAVISVP2,2013-06-24 06:49:00,
2013-06-23 23:54:00,58.7,57.8,29.60,NW,322,0.0,0.0,97,0.00,,,0.24,WUHU216DAVISVP2,2013-06-24 06:54:00,
2013-06-23 23:59:00,58.7,57.8,29.60,NW,322,0.0,0.0,97,0.00,,,0.24,WUHU216DAVISVP2,2013-06-24 06:59:00,